Hersey, Michigan
Current Conditions -  °F | °C
As of 5:55 PM on Thursday 20 Nov 2014 (Local Time) from KRQB Reporting Station
Light Snow Light Snow  
Wind Chill: 10°   Ceiling: 2300
Heat Index: 18°   Visibility: 3mi
Dew Point: 14°   Wind: 6mph
Humidity: 84%   Direction: 280°W
Pressure: 29.99"   Gusts: NA
Location:  43.85°N, 85.44°W
Report Text: KRQB 202255Z AUTO 28005KT 3SM -SN SCT013 BKN023 OVC033 M08/M10 A2999 RMK AO2 T10791101
Loading
Personal Weather Stations






























Interactive Weather Map New forecast layout! Learn more

10-Day Weather Forecast

Advertisements
Track Severe Weather on mobile